sensor_id;sensor_type;location;lat;lon;timestamp;pressure;altitude;pressure_sealevel;temperature;humidity
63190;BME280;49286;44.460;26.114;2023-03-22T00:00:48;99984.66;;;9.16;100.00
63190;BME280;49286;44.460;26.114;2023-03-22T00:03:14;99995.13;;;9.21;100.00
63190;BME280;49286;44.460;26.114;2023-03-22T00:05:40;99999.50;;;9.29;100.00
63190;BME280;49286;44.460;26.114;2023-03-22T00:08:05;99859.97;;;8.35;100.00
63190;BME280;49286;44.460;26.114;2023-03-22T00:10:33;99879.19;;;8.45;100.00
63190;BME280;49286;44.460;26.114;2023-03-22T00:13:00;99989.91;;;9.16;100.00
63190;BME280;49286;44.460;26.114;2023-03-22T00:15:26;99881.78;;;8.45;100.00
63190;BME280;49286;44.460;26.114;2023-03-22T00:17:54;99983.81;;;9.11;100.00
63190;BME280;49286;44.460;26.114;2023-03-22T00:20:21;99989.03;;;9.11;100.00
63190;BME280;49286;44.460;26.114;2023-03-22T00:22:48;99968.09;;;9.13;100.00
63190;BME280;49286;44.460;26.114;2023-03-22T00:25:13;99971.59;;;9.04;100.00
63190;BME280;49286;44.460;26.114;2023-03-22T00:27:39;99873.09;;;8.60;100.00
63190;BME280;49286;44.460;26.114;2023-03-22T00:30:06;99927.13;;;8.85;100.00
63190;BME280;49286;44.460;26.114;2023-03-22T00:32:36;99850.44;;;8.36;100.00
63190;BME280;49286;44.460;26.114;2023-03-22T00:35:03;99833.88;;;8.29;100.00
63190;BME280;49286;44.460;26.114;2023-03-22T00:37:28;99921.03;;;8.79;100.00
63190;BME280;49286;44.460;26.114;2023-03-22T00:40:00;99951.53;;;8.95;100.00
63190;BME280;49286;44.460;26.114;2023-03-22T00:42:25;99820.78;;;8.15;100.00
63190;BME280;49286;44.460;26.114;2023-03-22T00:44:51;99951.53;;;8.84;100.00
63190;BME280;49286;44.460;26.114;2023-03-22T00:47:16;99824.28;;;8.17;100.00
63190;BME280;49286;44.460;26.114;2023-03-22T00:49:42;99875.72;;;8.41;100.00
63190;BME280;49286;44.460;26.114;2023-03-22T00:52:07;99929.72;;;8.73;100.00
63190;BME280;49286;44.460;26.114;2023-03-22T00:54:33;99917.53;;;8.72;100.00
63190;BME280;49286;44.460;26.114;2023-03-22T00:56:58;99938.47;;;8.78;100.00
63190;BME280;49286;44.460;26.114;2023-03-22T00:59:24;99837.31;;;8.19;100.00
63190;BME280;49286;44.460;26.114;2023-03-22T01:01:49;99800.75;;;7.94;100.00
63190;BME280;49286;44.460;26.114;2023-03-22T01:04:15;99919.28;;;8.56;100.00
63190;BME280;49286;44.460;26.114;2023-03-22T01:06:42;99938.47;;;8.64;100.00
63190;BME280;49286;44.460;26.114;2023-03-22T01:09:09;99895.78;;;8.50;100.00
63190;BME280;49286;44.460;26.114;2023-03-22T01:11:40;99919.31;;;8.59;100.00
63190;BME280;49286;44.460;26.114;2023-03-22T01:14:06;99775.50;;;7.78;100.00
63190;BME280;49286;44.460;26.114;2023-03-22T01:16:35;99812.06;;;7.98;100.00
63190;BME280;49286;44.460;26.114;2023-03-22T01:19:01;99896.63;;;8.41;100.00
63190;BME280;49286;44.460;26.114;2023-03-22T01:21:26;99903.59;;;8.44;100.00
63190;BME280;49286;44.460;26.114;2023-03-22T01:23:52;99775.47;;;7.76;100.00
63190;BME280;49286;44.460;26.114;2023-03-22T01:26:17;99768.50;;;7.74;100.00
63190;BME280;49286;44.460;26.114;2023-03-22T01:28:42;99793.75;;;7.89;100.00
63190;BME280;49286;44.460;26.114;2023-03-22T01:31:08;99893.16;;;8.55;100.00
63190;BME280;49286;44.460;26.114;2023-03-22T01:33:33;99757.19;;;7.72;100.00
63190;BME280;49286;44.460;26.114;2023-03-22T01:35:59;99812.09;;;8.06;100.00
63190;BME280;49286;44.460;26.114;2023-03-22T01:38:24;99790.28;;;7.93;100.00
63190;BME280;49286;44.460;26.114;2023-03-22T01:40:50;99802.50;;;8.03;100.00
63190;BME280;49286;44.460;26.114;2023-03-22T01:43:16;99844.31;;;8.32;100.00
63190;BME280;49286;44.460;26.114;2023-03-22T01:45:44;99774.59;;;7.91;100.00
63190;BME280;49286;44.460;26.114;2023-03-22T01:50:45;99841.69;;;8.31;100.00
63190;BME280;49286;44.460;26.114;2023-03-22T01:53:14;99879.16;;;8.39;100.00
63190;BME280;49286;44.460;26.114;2023-03-22T01:55:44;99743.28;;;7.77;100.00
63190;BME280;49286;44.460;26.114;2023-03-22T01:58:10;99854.78;;;8.44;100.00
63190;BME280;49286;44.460;26.114;2023-03-22T02:00:35;99637.94;;;7.18;100.00
63190;BME280;49286;44.460;26.114;2023-03-22T02:03:01;99872.22;;;8.47;100.00
63190;BME280;49286;44.460;26.114;2023-03-22T02:05:27;99741.53;;;7.69;100.00
63190;BME280;49286;44.460;26.114;2023-03-22T02:07:54;99881.78;;;8.50;100.00
63190;BME280;49286;44.460;26.114;2023-03-22T02:10:24;99814.69;;;8.06;100.00
63190;BME280;49286;44.460;26.114;2023-03-22T02:32:44;99888.78;;;8.49;100.00
63190;BME280;49286;44.460;26.114;2023-03-22T02:43:31;99804.22;;;7.89;100.00
63190;BME280;49286;44.460;26.114;2023-03-22T02:46:09;99752.84;;;7.61;100.00
63190;BME280;49286;44.460;26.114;2023-03-22T02:48:40;99922.78;;;8.48;100.00
63190;BME280;49286;44.460;26.114;2023-03-22T02:51:31;99786.78;;;7.86;100.00
63190;BME280;49286;44.460;26.114;2023-03-22T02:54:07;99929.75;;;8.72;100.00
63190;BME280;49286;44.460;26.114;2023-03-22T02:56:41;99873.06;;;8.72;100.00
63190;BME280;49286;44.460;26.114;2023-03-22T02:59:10;99902.72;;;8.79;100.00
63190;BME280;49286;44.460;26.114;2023-03-22T03:01:46;99811.19;;;8.00;100.00
63190;BME280;49286;44.460;26.114;2023-03-22T03:04:17;99907.03;;;8.31;100.00
63190;BME280;49286;44.460;26.114;2023-03-22T03:06:44;99807.63;;;7.55;100.00
63190;BME280;49286;44.460;26.114;2023-03-22T03:09:13;99775.44;;;7.49;100.00
63190;BME280;49286;44.460;26.114;2023-03-22T03:11:48;99910.50;;;8.28;100.00
63190;BME280;49286;44.460;26.114;2023-03-22T03:14:26;99803.31;;;7.54;100.00
63190;BME280;49286;44.460;26.114;2023-03-22T03:19:44;99863.41;;;7.91;100.00
63190;BME280;49286;44.460;26.114;2023-03-22T03:22:43;99898.28;;;8.02;100.00
63190;BME280;49286;44.460;26.114;2023-03-22T03:25:40;99891.31;;;7.89;100.00
63190;BME280;49286;44.460;26.114;2023-03-22T03:28:25;99800.63;;;7.34;100.00
63190;BME280;49286;44.460;26.114;2023-03-22T03:33:54;99878.22;;;7.86;100.00
63190;BME280;49286;44.460;26.114;2023-03-22T03:36:24;99881.69;;;7.77;100.00
63190;BME280;49286;44.460;26.114;2023-03-22T03:38:52;99881.69;;;7.83;100.00
63190;BME280;49286;44.460;26.114;2023-03-22T03:41:23;99763.16;;;7.14;100.00
63190;BME280;49286;44.460;26.114;2023-03-22T03:43:51;99784.09;;;7.29;100.00
63190;BME280;49286;44.460;26.114;2023-03-22T03:46:19;99872.13;;;7.84;100.00
63190;BME280;49286;44.460;26.114;2023-03-22T03:48:47;99879.97;;;7.90;100.00
63190;BME280;49286;44.460;26.114;2023-03-22T03:51:14;99771.88;;;7.21;100.00
63190;BME280;49286;44.460;26.114;2023-03-22T03:53:40;99735.28;;;6.96;100.00
63190;BME280;49286;44.460;26.114;2023-03-22T03:56:06;99865.16;;;7.78;100.00
63190;BME280;49286;44.460;26.114;2023-03-22T03:58:32;99882.59;;;7.95;100.00
63190;BME280;49286;44.460;26.114;2023-03-22T04:00:57;99780.56;;;7.23;100.00
63190;BME280;49286;44.460;26.114;2023-03-22T04:03:23;99797.13;;;7.29;100.00
63190;BME280;49286;44.460;26.114;2023-03-22T04:05:49;99883.41;;;7.72;100.00
63190;BME280;49286;44.460;26.114;2023-03-22T04:08:14;99893.00;;;7.73;100.00
63190;BME280;49286;44.460;26.114;2023-03-22T04:10:40;99791.84;;;7.08;100.00
63190;BME280;49286;44.460;26.114;2023-03-22T04:13:05;99899.03;;;7.63;100.00
63190;BME280;49286;44.460;26.114;2023-03-22T04:15:31;99887.72;;;7.52;100.00
63190;BME280;49286;44.460;26.114;2023-03-22T04:17:57;99829.31;;;7.27;100.00
63190;BME280;49286;44.460;26.114;2023-03-22T04:20:23;99850.22;;;7.39;100.00
63190;BME280;49286;44.460;26.114;2023-03-22T04:22:50;99904.25;;;7.58;100.00
63190;BME280;49286;44.460;26.114;2023-03-22T04:25:17;99763.88;;;6.81;100.00
63190;BME280;49286;44.460;26.114;2023-03-22T04:27:44;99810.09;;;7.11;100.00
63190;BME280;49286;44.460;26.114;2023-03-22T04:30:13;99783.06;;;6.90;100.00
63190;BME280;49286;44.460;26.114;2023-03-22T04:32:45;99937.34;;;7.67;100.00
63190;BME280;49286;44.460;26.114;2023-03-22T04:35:11;99810.91;;;6.99;100.00
63190;BME280;49286;44.460;26.114;2023-03-22T04:37:37;99891.13;;;7.40;100.00
63190;BME280;49286;44.460;26.114;2023-03-22T04:40:03;99851.03;;;7.24;100.00
63190;BME280;49286;44.460;26.114;2023-03-22T04:42:33;99910.31;;;7.51;100.00
63190;BME280;49286;44.460;26.114;2023-03-22T04:44:58;99800.44;;;6.84;100.00
63190;BME280;49286;44.460;26.114;2023-03-22T04:47:24;99921.66;;;7.55;100.00
63190;BME280;49286;44.460;26.114;2023-03-22T04:49:50;99866.69;;;7.21;100.00
63190;BME280;49286;44.460;26.114;2023-03-22T04:52:16;99936.44;;;7.57;100.00
63190;BME280;49286;44.460;26.114;2023-03-22T04:54:41;99814.25;;;6.70;100.00
63190;BME280;49286;44.460;26.114;2023-03-22T04:57:07;99919.91;;;7.52;100.00
63190;BME280;49286;44.460;26.114;2023-03-22T04:59:32;99911.16;;;7.43;100.00
63190;BME280;49286;44.460;26.114;2023-03-22T05:01:58;99893.69;;;7.29;100.00
63190;BME280;49286;44.460;26.114;2023-03-22T05:04:24;99864.03;;;7.15;100.00
63190;BME280;49286;44.460;26.114;2023-03-22T05:06:51;99910.25;;;7.42;100.00
63190;BME280;49286;44.460;26.114;2023-03-22T05:09:18;99924.16;;;7.33;100.00
63190;BME280;49286;44.460;26.114;2023-03-22T05:11:43;99827.34;;;6.80;100.00
63190;BME280;49286;44.460;26.114;2023-03-22T05:14:09;99972.97;;;7.56;100.00
63190;BME280;49286;44.460;26.114;2023-03-22T05:16:35;99972.16;;;7.61;100.00
63190;BME280;49286;44.460;26.114;2023-03-22T05:19:01;99847.34;;;6.82;100.00
63190;BME280;49286;44.460;26.114;2023-03-22T05:21:28;99839.47;;;6.73;100.00
63190;BME280;49286;44.460;26.114;2023-03-22T05:23:57;99838.63;;;6.77;100.00
63190;BME280;49286;44.460;26.114;2023-03-22T05:26:24;99827.31;;;6.75;100.00
63190;BME280;49286;44.460;26.114;2023-03-22T05:28:51;99842.16;;;6.90;100.00
63190;BME280;49286;44.460;26.114;2023-03-22T05:31:17;99967.72;;;7.47;100.00
63190;BME280;49286;44.460;26.114;2023-03-22T05:33:46;99870.91;;;6.97;100.00
63190;BME280;49286;44.460;26.114;2023-03-22T05:36:12;99969.50;;;7.49;100.00
63190;BME280;49286;44.460;26.114;2023-03-22T05:38:37;99952.84;;;7.32;100.00
63190;BME280;49286;44.460;26.114;2023-03-22T05:41:03;99852.47;;;6.68;100.00
63190;BME280;49286;44.460;26.114;2023-03-22T05:43:29;99856.88;;;6.75;100.00
63190;BME280;49286;44.460;26.114;2023-03-22T05:45:55;99990.41;;;7.58;100.00
63190;BME280;49286;44.460;26.114;2023-03-22T05:48:20;99998.25;;;7.57;100.00
63190;BME280;49286;44.460;26.114;2023-03-22T05:50:46;99965.09;;;7.47;100.00
63190;BME280;49286;44.460;26.114;2023-03-22T05:53:11;99868.25;;;6.88;100.00
63190;BME280;49286;44.460;26.114;2023-03-22T05:55:37;99978.19;;;7.51;100.00
63190;BME280;49286;44.460;26.114;2023-03-22T05:58:03;100009.59;;;7.70;100.00
63190;BME280;49286;44.460;26.114;2023-03-22T06:00:29;100016.59;;;7.77;100.00
63190;BME280;49286;44.460;26.114;2023-03-22T06:02:57;99897.06;;;7.13;100.00
63190;BME280;49286;44.460;26.114;2023-03-22T06:05:28;99967.75;;;7.53;100.00
63190;BME280;49286;44.460;26.114;2023-03-22T06:07:53;100004.50;;;7.87;100.00
63190;BME280;49286;44.460;26.114;2023-03-22T06:10:19;100016.72;;;7.98;100.00
63190;BME280;49286;44.460;26.114;2023-03-22T06:12:44;99871.00;;;7.16;100.00
63190;BME280;49286;44.460;26.114;2023-03-22T06:15:10;100025.53;;;8.22;100.00
63190;BME280;49286;44.460;26.114;2023-03-22T06:17:36;100015.94;;;8.25;100.00
63190;BME280;49286;44.460;26.114;2023-03-22T06:20:04;100014.22;;;8.24;100.00
63190;BME280;49286;44.460;26.114;2023-03-22T06:22:36;99901.56;;;7.38;100.00
63190;BME280;49286;44.460;26.114;2023-03-22T06:25:03;100030.78;;;8.31;100.00
63190;BME280;49286;44.460;26.114;2023-03-22T06:27:29;100037.72;;;8.26;100.00
63190;BME280;49286;44.460;26.114;2023-03-22T06:29:54;100038.63;;;8.31;100.00
63190;BME280;49286;44.460;26.114;2023-03-22T06:32:23;100038.69;;;8.43;100.00
63190;BME280;49286;44.460;26.114;2023-03-22T06:34:55;99937.44;;;7.87;100.00
63190;BME280;49286;44.460;26.114;2023-03-22T06:37:21;100015.97;;;8.36;100.00
63190;BME280;49286;44.460;26.114;2023-03-22T06:39:47;99912.94;;;7.50;100.00
63190;BME280;49286;44.460;26.114;2023-03-22T06:42:12;100067.31;;;8.19;100.00
63190;BME280;49286;44.460;26.114;2023-03-22T06:44:38;100035.88;;;8.00;100.00
63190;BME280;49286;44.460;26.114;2023-03-22T06:47:06;99960.09;;;7.90;100.00
63190;BME280;49286;44.460;26.114;2023-03-22T06:49:33;100068.16;;;8.09;100.00
63190;BME280;49286;44.460;26.114;2023-03-22T06:51:58;99969.56;;;7.61;100.00
63190;BME280;49286;44.460;26.114;2023-03-22T06:54:24;100070.88;;;8.35;100.00
63190;BME280;49286;44.460;26.114;2023-03-22T06:56:49;100039.34;;;7.96;100.00
63190;BME280;49286;44.460;26.114;2023-03-22T06:59:15;100084.75;;;8.21;100.00
63190;BME280;49286;44.460;26.114;2023-03-22T07:01:40;99946.91;;;7.60;100.00
63190;BME280;49286;44.460;26.114;2023-03-22T07:04:06;99932.03;;;7.44;100.00
63190;BME280;49286;44.460;26.114;2023-03-22T07:06:31;99951.28;;;7.69;100.00
63190;BME280;49286;44.460;26.114;2023-03-22T07:08:57;99944.22;;;7.48;100.00
63190;BME280;49286;44.460;26.114;2023-03-22T07:11:23;99934.69;;;7.52;100.00
63190;BME280;49286;44.460;26.114;2023-03-22T07:13:51;100083.13;;;8.47;100.00
63190;BME280;49286;44.460;26.114;2023-03-22T07:16:16;99981.84;;;7.93;100.00
63190;BME280;49286;44.460;26.114;2023-03-22T07:18:42;100090.13;;;8.55;100.00
63190;BME280;49286;44.460;26.114;2023-03-22T07:21:07;100094.53;;;8.70;100.00
63190;BME280;49286;44.460;26.114;2023-03-22T07:23:33;100074.47;;;8.75;100.00
63190;BME280;49286;44.460;26.114;2023-03-22T07:25:59;100093.72;;;9.09;100.00
63190;BME280;49286;44.460;26.114;2023-03-22T07:28:24;100099.78;;;8.84;100.00
63190;BME280;49286;44.460;26.114;2023-03-22T07:31:02;100099.81;;;9.05;100.00
63190;BME280;49286;44.460;26.114;2023-03-22T07:33:28;99976.75;;;8.38;100.00
63190;BME280;49286;44.460;26.114;2023-03-22T07:35:54;99967.97;;;8.05;100.00
63190;BME280;49286;44.460;26.114;2023-03-22T07:38:19;100111.16;;;8.87;100.00
63190;BME280;49286;44.460;26.114;2023-03-22T07:40:45;99985.53;;;8.46;100.00
63190;BME280;49286;44.460;26.114;2023-03-22T07:43:11;100031.78;;;8.88;100.00
63190;BME280;49286;44.460;26.114;2023-03-22T07:45:37;100096.34;;;9.00;100.00
63190;BME280;49286;44.460;26.114;2023-03-22T07:48:05;100127.75;;;9.36;100.00
63190;BME280;49286;44.460;26.114;2023-03-22T07:50:30;100071.84;;;8.68;100.00
63190;BME280;49286;44.460;26.114;2023-03-22T07:52:56;99983.75;;;8.36;100.00
63190;BME280;49286;44.460;26.114;2023-03-22T07:55:22;100138.25;;;9.36;100.00
63190;BME280;49286;44.460;26.114;2023-03-22T07:57:47;100036.97;;;8.78;100.00
63190;BME280;49286;44.460;26.114;2023-03-22T08:00:13;100092.00;;;9.16;100.00
63190;BME280;49286;44.460;26.114;2023-03-22T08:02:39;99997.75;;;8.78;100.00
63190;BME280;49286;44.460;26.114;2023-03-22T08:05:05;100010.84;;;8.76;100.00
63190;BME280;49286;44.460;26.114;2023-03-22T08:07:31;100171.38;;;9.14;100.00
63190;BME280;49286;44.460;26.114;2023-03-22T08:09:57;100153.97;;;9.25;100.00
63190;BME280;49286;44.460;26.114;2023-03-22T08:12:22;100146.97;;;9.33;100.00
63190;BME280;49286;44.460;26.114;2023-03-22T08:14:48;100165.31;;;9.51;100.00
63190;BME280;49286;44.460;26.114;2023-03-22T08:17:16;100074.53;;;8.87;100.00
63190;BME280;49286;44.460;26.114;2023-03-22T08:19:42;100190.59;;;9.11;100.00
63190;BME280;49286;44.460;26.114;2023-03-22T08:22:08;100201.09;;;9.42;100.00
63190;BME280;49286;44.460;26.114;2023-03-22T08:24:33;100064.03;;;8.81;100.00
63190;BME280;49286;44.460;26.114;2023-03-22T08:26:59;100197.59;;;9.64;100.00
63190;BME280;49286;44.460;26.114;2023-03-22T08:29:25;100075.38;;;9.03;100.00
63190;BME280;49286;44.460;26.114;2023-03-22T08:31:51;100199.34;;;9.71;100.00
63190;BME280;49286;44.460;26.114;2023-03-22T08:34:17;100211.63;;;9.79;100.00
63190;BME280;49286;44.460;26.114;2023-03-22T08:36:43;100207.22;;;9.90;100.00
63190;BME280;49286;44.460;26.114;2023-03-22T08:39:08;100177.56;;;9.69;100.00
63190;BME280;49286;44.460;26.114;2023-03-22T08:41:34;100208.09;;;9.78;100.00
63190;BME280;49286;44.460;26.114;2023-03-22T08:44:00;100235.16;;;9.92;100.00
63190;BME280;49286;44.460;26.114;2023-03-22T08:46:26;100232.53;;;9.92;100.00
63190;BME280;49286;44.460;26.114;2023-03-22T08:48:51;100138.25;;;9.46;100.00
63190;BME280;49286;44.460;26.114;2023-03-22T08:51:19;100239.56;;;10.00;100.00
63190;BME280;49286;44.460;26.114;2023-03-22T08:53:46;100215.09;;;9.79;100.00
63190;BME280;49286;44.460;26.114;2023-03-22T08:56:11;100141.75;;;9.48;100.00
63190;BME280;49286;44.460;26.114;2023-03-22T08:58:41;100124.28;;;9.38;100.00
63190;BME280;49286;44.460;26.114;2023-03-22T09:01:11;100261.41;;;10.09;100.00
63190;BME280;49286;44.460;26.114;2023-03-22T09:03:37;100270.13;;;10.02;100.00
63190;BME280;49286;44.460;26.114;2023-03-22T09:06:02;100195.00;;;9.60;100.00
63190;BME280;49286;44.460;26.114;2023-03-22T09:08:28;100174.91;;;9.48;100.00
63190;BME280;49286;44.460;26.114;2023-03-22T09:10:54;100155.69;;;9.38;100.00
63190;BME280;49286;44.460;26.114;2023-03-22T09:13:19;100289.38;;;9.90;100.00
63190;BME280;49286;44.460;26.114;2023-03-22T09:15:46;100164.44;;;9.46;100.00
63190;BME280;49286;44.460;26.114;2023-03-22T09:18:12;100184.50;;;9.60;100.00
63190;BME280;49286;44.460;26.114;2023-03-22T09:20:38;100179.28;;;9.66;100.00
63190;BME280;49286;44.460;26.114;2023-03-22T09:23:04;100189.75;;;9.78;100.00
63190;BME280;49286;44.460;26.114;2023-03-22T09:25:30;100190.66;;;9.83;100.00
63190;BME280;49286;44.460;26.114;2023-03-22T09:27:55;100193.25;;;9.85;100.00
63190;BME280;49286;44.460;26.114;2023-03-22T09:30:21;100222.94;;;9.99;100.00
63190;BME280;49286;44.460;26.114;2023-03-22T09:32:46;100222.94;;;10.01;100.00
63190;BME280;49286;44.460;26.114;2023-03-22T09:35:11;100259.63;;;10.21;100.00
63190;BME280;49286;44.460;26.114;2023-03-22T09:37:37;100238.66;;;9.94;100.00
63190;BME280;49286;44.460;26.114;2023-03-22T09:40:04;100213.34;;;9.87;100.00
63190;BME280;49286;44.460;26.114;2023-03-22T09:42:46;100348.78;;;10.10;100.00
63190;BME280;49286;44.460;26.114;2023-03-22T09:45:17;100332.16;;;10.25;100.00
63190;BME280;49286;44.460;26.114;2023-03-22T09:47:46;100320.81;;;10.50;100.00
63190;BME280;49286;44.460;26.114;2023-03-22T09:50:18;100208.13;;;9.95;100.00
63190;BME280;49286;44.460;26.114;2023-03-22T09:52:45;100250.03;;;10.20;100.00
63190;BME280;49286;44.460;26.114;2023-03-22T09:55:21;100248.28;;;9.79;100.00
63190;BME280;49286;44.460;26.114;2023-03-22T10:06:01;100351.41;;;10.25;100.00
63190;BME280;49286;44.460;26.114;2023-03-22T10:11:38;100340.00;;;10.98;100.00
63190;BME280;49286;44.460;26.114;2023-03-22T10:16:51;100267.53;;;10.07;100.00
63190;BME280;49286;44.460;26.114;2023-03-22T10:21:49;100133.00;;;9.66;100.00
63190;BME280;49286;44.460;26.114;2023-03-22T10:24:26;100374.97;;;11.02;100.00
63190;BME280;49286;44.460;26.114;2023-03-22T10:26:52;100388.13;;;10.99;100.00
63190;BME280;49286;44.460;26.114;2023-03-22T10:31:43;100387.22;;;11.00;100.00
63190;BME280;49286;44.460;26.114;2023-03-22T10:34:21;100364.53;;;10.76;100.00
63190;BME280;49286;44.460;26.114;2023-03-22T10:36:49;100299.00;;;10.42;100.00
63190;BME280;49286;44.460;26.114;2023-03-22T10:41:53;100226.41;;;10.18;100.00
63190;BME280;49286;44.460;26.114;2023-03-22T10:44:22;100390.75;;;10.74;100.00
63190;BME280;49286;44.460;26.114;2023-03-22T10:46:49;100396.00;;;10.85;100.00
63190;BME280;49286;44.460;26.114;2023-03-22T10:49:32;100259.63;;;9.65;100.00
63190;BME280;49286;44.460;26.114;2023-03-22T10:52:13;100237.81;;;9.69;100.00
63190;BME280;49286;44.460;26.114;2023-03-22T10:54:44;100361.03;;;10.37;100.00
63190;BME280;49286;44.460;26.114;2023-03-22T10:57:10;100249.13;;;10.18;100.00
63190;BME280;49286;44.460;26.114;2023-03-22T10:59:49;100365.31;;;11.15;100.00
63190;BME280;49286;44.460;26.114;2023-03-22T11:04:47;100246.53;;;10.33;100.00
63190;BME280;49286;44.460;26.114;2023-03-22T11:10:24;100375.84;;;11.10;100.00
63190;BME280;49286;44.460;26.114;2023-03-22T11:12:55;100355.69;;;11.14;100.00
63190;BME280;49286;44.460;26.114;2023-03-22T11:15:38;100269.25;;;10.43;100.00
63190;BME280;49286;44.460;26.114;2023-03-22T11:18:09;100381.94;;;11.15;100.00
63190;BME280;49286;44.460;26.114;2023-03-22T11:20:39;100276.22;;;10.50;100.00
63190;BME280;49286;44.460;26.114;2023-03-22T11:23:10;100396.78;;;11.27;100.00
63190;BME280;49286;44.460;26.114;2023-03-22T11:25:44;100363.53;;;11.20;100.00
63190;BME280;49286;44.460;26.114;2023-03-22T11:28:33;100403.72;;;11.50;100.00
63190;BME280;49286;44.460;26.114;2023-03-22T11:31:19;100406.31;;;11.59;100.00
63190;BME280;49286;44.460;26.114;2023-03-22T11:36:20;100307.63;;;10.87;100.00
63190;BME280;49286;44.460;26.114;2023-03-22T11:38:46;100280.59;;;9.94;100.00
63190;BME280;49286;44.460;26.114;2023-03-22T11:41:38;100391.66;;;10.69;100.00
63190;BME280;49286;44.460;26.114;2023-03-22T11:44:27;100291.97;;;10.07;100.00
63190;BME280;49286;44.460;26.114;2023-03-22T11:46:56;100257.00;;;10.25;100.00
63190;BME280;49286;44.460;26.114;2023-03-22T11:49:31;100393.31;;;11.22;100.00
63190;BME280;49286;44.460;26.114;2023-03-22T11:52:07;100245.66;;;10.08;100.00
63190;BME280;49286;44.460;26.114;2023-03-22T11:54:34;100271.00;;;10.46;100.00
63190;BME280;49286;44.460;26.114;2023-03-22T11:57:05;100373.44;;;12.35;100.00
63190;BME280;49286;44.460;26.114;2023-03-22T11:59:52;100250.25;;;11.77;100.00
63190;BME280;49286;44.460;26.114;2023-03-22T12:02:31;100396.88;;;10.98;100.00
63190;BME280;49286;44.460;26.114;2023-03-22T12:05:13;100383.75;;;10.86;100.00
63190;BME280;49286;44.460;26.114;2023-03-22T12:07:40;100296.34;;;10.44;100.00
63190;BME280;49286;44.460;26.114;2023-03-22T12:10:14;100389.03;;;10.70;100.00
63190;BME280;49286;44.460;26.114;2023-03-22T12:12:52;100390.75;;;10.85;100.00
63190;BME280;49286;44.460;26.114;2023-03-22T12:15:22;100282.38;;;10.05;100.00
63190;BME280;49286;44.460;26.114;2023-03-22T12:18:32;100382.91;;;10.71;100.00
63190;BME280;49286;44.460;26.114;2023-03-22T12:21:00;100367.13;;;10.84;100.00
63190;BME280;49286;44.460;26.114;2023-03-22T12:23:28;100248.25;;;10.15;100.00
63190;BME280;49286;44.460;26.114;2023-03-22T12:28:39;100379.34;;;10.97;100.00
63190;BME280;49286;44.460;26.114;2023-03-22T12:31:23;100352.25;;;10.92;100.00
63190;BME280;49286;44.460;26.114;2023-03-22T12:33:58;100363.59;;;10.97;100.00
63190;BME280;49286;44.460;26.114;2023-03-22T12:36:51;100381.09;;;11.01;100.00
63190;BME280;49286;44.460;26.114;2023-03-22T12:39:32;100379.31;;;11.14;100.00
63190;BME280;49286;44.460;26.114;2023-03-22T12:42:04;100374.88;;;11.33;100.00
63190;BME280;49286;44.460;26.114;2023-03-22T12:44:42;100325.06;;;11.13;100.00
63190;BME280;49286;44.460;26.114;2023-03-22T12:47:24;100366.13;;;11.32;100.00
63190;BME280;49286;44.460;26.114;2023-03-22T12:49:57;100296.25;;;10.91;100.00
63190;BME280;49286;44.460;26.114;2023-03-22T12:52:32;100390.56;;;11.51;100.00
63190;BME280;49286;44.460;26.114;2023-03-22T12:55:01;100388.00;;;11.39;100.00
63190;BME280;49286;44.460;26.114;2023-03-22T12:57:27;100328.31;;;11.62;100.00
63190;BME280;49286;44.460;26.114;2023-03-22T12:59:56;100328.59;;;10.95;100.00
63190;BME280;49286;44.460;26.114;2023-03-22T13:02:28;100419.53;;;11.36;100.00
63190;BME280;49286;44.460;26.114;2023-03-22T13:05:00;100394.97;;;11.40;100.00
63190;BME280;49286;44.460;26.114;2023-03-22T13:09:55;100400.38;;;10.98;100.00
63190;BME280;49286;44.460;26.114;2023-03-22T13:28:17;100407.19;;;11.52;100.00
63190;BME280;49286;44.460;26.114;2023-03-22T13:30:52;100397.66;;;11.28;100.00
63190;BME280;49286;44.460;26.114;2023-03-22T13:33:30;100334.81;;;10.51;100.00
63190;BME280;49286;44.460;26.114;2023-03-22T13:36:23;100413.44;;;11.29;100.00
63190;BME280;49286;44.460;26.114;2023-03-22T13:38:58;100286.72;;;10.18;100.00
63190;BME280;49286;44.460;26.114;2023-03-22T13:41:33;100298.97;;;10.16;100.00
63190;BME280;49286;44.460;26.114;2023-03-22T13:44:02;100293.72;;;10.19;100.00
63190;BME280;49286;44.460;26.114;2023-03-22T13:46:43;100369.78;;;10.57;100.00
63190;BME280;49286;44.460;26.114;2023-03-22T13:52:07;100228.22;;;9.67;100.00
63190;BME280;49286;44.460;26.114;2023-03-22T13:54:41;100314.69;;;10.14;100.00
63190;BME280;49286;44.460;26.114;2023-03-22T13:57:36;100298.09;;;10.08;100.00
63190;BME280;49286;44.460;26.114;2023-03-22T14:02:42;100191.50;;;9.61;100.00
63190;BME280;49286;44.460;26.114;2023-03-22T14:05:13;100195.00;;;9.52;100.00
63190;BME280;49286;44.460;26.114;2023-03-22T14:07:52;100266.63;;;9.80;100.00
63190;BME280;49286;44.460;26.114;2023-03-22T14:10:25;100321.69;;;10.06;100.00
63190;BME280;49286;44.460;26.114;2023-03-22T14:16:01;100306.88;;;10.28;100.00
63190;BME280;49286;44.460;26.114;2023-03-22T14:18:34;100237.78;;;9.63;100.00
63190;BME280;49286;44.460;26.114;2023-03-22T14:21:06;100322.59;;;10.30;100.00
63190;BME280;49286;44.460;26.114;2023-03-22T14:23:35;100222.94;;;9.81;100.00
63190;BME280;49286;44.460;26.114;2023-03-22T14:26:11;100313.84;;;10.14;100.00
63190;BME280;49286;44.460;26.114;2023-03-22T14:28:39;100174.06;;;9.58;100.00